sensor_id;sensor_type;location;lat;lon;timestamp;P1;durP1;ratioP1;P2;durP2;ratioP2
54959;SDS011;40860;51.710;8.736;2022-09-09T00:03:19;3.03;;;1.00;;
54959;SDS011;40860;51.710;8.736;2022-09-09T00:07:33;2.20;;;0.93;;
54959;SDS011;40860;51.710;8.736;2022-09-09T00:11:43;3.00;;;1.02;;
54959;SDS011;40860;51.710;8.736;2022-09-09T00:15:52;2.25;;;1.00;;
54959;SDS011;40860;51.710;8.736;2022-09-09T00:20:01;2.05;;;0.80;;
54959;SDS011;40860;51.710;8.736;2022-09-09T00:24:11;2.30;;;0.98;;
54959;SDS011;40860;51.710;8.736;2022-09-09T00:28:27;2.63;;;1.00;;
54959;SDS011;40860;51.710;8.736;2022-09-09T00:32:33;4.20;;;1.20;;
54959;SDS011;40860;51.710;8.736;2022-09-09T00:36:39;4.30;;;1.17;;
54959;SDS011;40860;51.710;8.736;2022-09-09T00:40:47;3.13;;;1.20;;
54959;SDS011;40860;51.710;8.736;2022-09-09T00:44:53;3.70;;;1.02;;
54959;SDS011;40860;51.710;8.736;2022-09-09T00:49:04;2.80;;;1.20;;
54959;SDS011;40860;51.710;8.736;2022-09-09T00:53:19;3.42;;;1.30;;
54959;SDS011;40860;51.710;8.736;2022-09-09T00:57:34;5.25;;;1.20;;
54959;SDS011;40860;51.710;8.736;2022-09-09T01:01:38;3.30;;;1.20;;
54959;SDS011;40860;51.710;8.736;2022-09-09T01:05:43;2.78;;;1.00;;
54959;SDS011;40860;51.710;8.736;2022-09-09T01:09:52;1.88;;;0.88;;
54959;SDS011;40860;51.710;8.736;2022-09-09T01:14:00;2.97;;;0.98;;
54959;SDS011;40860;51.710;8.736;2022-09-09T01:18:13;6.88;;;1.23;;
54959;SDS011;40860;51.710;8.736;2022-09-09T01:22:22;2.95;;;1.10;;
54959;SDS011;40860;51.710;8.736;2022-09-09T01:26:37;3.45;;;1.00;;
54959;SDS011;40860;51.710;8.736;2022-09-09T01:30:51;8.25;;;1.40;;
54959;SDS011;40860;51.710;8.736;2022-09-09T01:34:57;3.78;;;1.30;;
54959;SDS011;40860;51.710;8.736;2022-09-09T01:39:00;3.67;;;1.20;;
54959;SDS011;40860;51.710;8.736;2022-09-09T01:43:05;3.55;;;1.08;;
54959;SDS011;40860;51.710;8.736;2022-09-09T01:47:10;3.20;;;1.08;;
54959;SDS011;40860;51.710;8.736;2022-09-09T01:51:28;4.18;;;1.30;;
54959;SDS011;40860;51.710;8.736;2022-09-09T01:55:37;3.15;;;1.10;;
54959;SDS011;40860;51.710;8.736;2022-09-09T01:59:57;3.45;;;1.20;;
54959;SDS011;40860;51.710;8.736;2022-09-09T02:04:18;4.15;;;1.23;;
54959;SDS011;40860;51.710;8.736;2022-09-09T02:08:32;2.20;;;0.90;;
54959;SDS011;40860;51.710;8.736;2022-09-09T02:12:43;2.65;;;1.00;;
54959;SDS011;40860;51.710;8.736;2022-09-09T02:16:52;2.83;;;0.93;;
54959;SDS011;40860;51.710;8.736;2022-09-09T02:21:09;2.25;;;1.00;;
54959;SDS011;40860;51.710;8.736;2022-09-09T02:25:14;2.08;;;0.90;;
54959;SDS011;40860;51.710;8.736;2022-09-09T02:29:23;4.13;;;1.25;;
54959;SDS011;40860;51.710;8.736;2022-09-09T02:33:33;2.97;;;1.30;;
54959;SDS011;40860;51.710;8.736;2022-09-09T02:37:41;3.53;;;1.10;;
54959;SDS011;40860;51.710;8.736;2022-09-09T02:41:48;3.65;;;1.05;;
54959;SDS011;40860;51.710;8.736;2022-09-09T02:45:54;1.90;;;1.10;;
54959;SDS011;40860;51.710;8.736;2022-09-09T02:50:11;3.30;;;0.95;;
54959;SDS011;40860;51.710;8.736;2022-09-09T02:54:20;3.40;;;1.30;;
54959;SDS011;40860;51.710;8.736;2022-09-09T02:58:29;3.70;;;1.52;;
54959;SDS011;40860;51.710;8.736;2022-09-09T03:02:37;2.58;;;1.20;;
54959;SDS011;40860;51.710;8.736;2022-09-09T03:06:43;2.05;;;1.30;;
54959;SDS011;40860;51.710;8.736;2022-09-09T03:10:52;2.45;;;1.30;;
54959;SDS011;40860;51.710;8.736;2022-09-09T03:14:59;1.77;;;1.10;;
54959;SDS011;40860;51.710;8.736;2022-09-09T03:19:02;3.10;;;1.48;;
54959;SDS011;40860;51.710;8.736;2022-09-09T03:23:07;3.28;;;1.02;;
54959;SDS011;40860;51.710;8.736;2022-09-09T03:27:16;2.20;;;1.08;;
54959;SDS011;40860;51.710;8.736;2022-09-09T03:31:20;3.88;;;1.20;;
54959;SDS011;40860;51.710;8.736;2022-09-09T03:35:25;2.90;;;1.10;;
54959;SDS011;40860;51.710;8.736;2022-09-09T03:39:30;3.30;;;1.08;;
54959;SDS011;40860;51.710;8.736;2022-09-09T03:43:33;2.13;;;0.95;;
54959;SDS011;40860;51.710;8.736;2022-09-09T03:47:36;1.92;;;1.10;;
54959;SDS011;40860;51.710;8.736;2022-09-09T03:51:40;3.67;;;1.02;;
54959;SDS011;40860;51.710;8.736;2022-09-09T03:55:48;2.55;;;1.10;;
54959;SDS011;40860;51.710;8.736;2022-09-09T03:59:53;2.75;;;1.10;;
54959;SDS011;40860;51.710;8.736;2022-09-09T04:03:56;4.75;;;1.17;;
54959;SDS011;40860;51.710;8.736;2022-09-09T04:08:00;2.47;;;0.85;;
54959;SDS011;40860;51.710;8.736;2022-09-09T04:12:05;4.05;;;1.20;;
54959;SDS011;40860;51.710;8.736;2022-09-09T04:16:09;3.60;;;1.10;;
54959;SDS011;40860;51.710;8.736;2022-09-09T04:20:15;2.90;;;1.10;;
54959;SDS011;40860;51.710;8.736;2022-09-09T04:24:19;3.78;;;0.90;;
54959;SDS011;40860;51.710;8.736;2022-09-09T04:28:25;5.72;;;1.30;;
54959;SDS011;40860;51.710;8.736;2022-09-09T04:32:31;4.07;;;1.08;;
54959;SDS011;40860;51.710;8.736;2022-09-09T04:36:34;5.88;;;1.42;;
54959;SDS011;40860;51.710;8.736;2022-09-09T04:40:41;4.25;;;1.30;;
54959;SDS011;40860;51.710;8.736;2022-09-09T04:44:46;4.68;;;1.38;;
54959;SDS011;40860;51.710;8.736;2022-09-09T04:48:50;5.72;;;2.30;;
54959;SDS011;40860;51.710;8.736;2022-09-09T04:52:55;4.95;;;2.78;;
54959;SDS011;40860;51.710;8.736;2022-09-09T04:56:58;3.97;;;1.50;;
54959;SDS011;40860;51.710;8.736;2022-09-09T05:01:06;4.00;;;1.83;;
54959;SDS011;40860;51.710;8.736;2022-09-09T05:05:13;6.22;;;1.83;;
54959;SDS011;40860;51.710;8.736;2022-09-09T05:09:16;4.93;;;1.90;;
54959;SDS011;40860;51.710;8.736;2022-09-09T05:13:20;2.38;;;1.50;;
54959;SDS011;40860;51.710;8.736;2022-09-09T05:17:25;5.65;;;1.85;;
54959;SDS011;40860;51.710;8.736;2022-09-09T05:21:28;5.05;;;2.42;;
54959;SDS011;40860;51.710;8.736;2022-09-09T05:25:31;8.38;;;3.35;;
54959;SDS011;40860;51.710;8.736;2022-09-09T05:29:34;7.30;;;4.35;;
54959;SDS011;40860;51.710;8.736;2022-09-09T05:33:41;19.80;;;8.88;;
54959;SDS011;40860;51.710;8.736;2022-09-09T05:37:47;23.55;;;11.35;;
54959;SDS011;40860;51.710;8.736;2022-09-09T05:41:50;12.68;;;5.63;;
54959;SDS011;40860;51.710;8.736;2022-09-09T05:46:00;3.97;;;1.70;;
54959;SDS011;40860;51.710;8.736;2022-09-09T05:50:08;4.68;;;1.48;;
54959;SDS011;40860;51.710;8.736;2022-09-09T05:54:11;1.52;;;1.00;;
54959;SDS011;40860;51.710;8.736;2022-09-09T05:58:19;3.65;;;1.17;;
54959;SDS011;40860;51.710;8.736;2022-09-09T06:02:24;7.65;;;1.45;;
54959;SDS011;40860;51.710;8.736;2022-09-09T06:06:30;3.33;;;1.20;;
54959;SDS011;40860;51.710;8.736;2022-09-09T06:10:42;3.42;;;1.23;;
54959;SDS011;40860;51.710;8.736;2022-09-09T06:14:45;5.85;;;1.25;;
54959;SDS011;40860;51.710;8.736;2022-09-09T06:18:49;7.80;;;1.63;;
54959;SDS011;40860;51.710;8.736;2022-09-09T06:22:54;5.95;;;1.40;;
54959;SDS011;40860;51.710;8.736;2022-09-09T06:26:57;6.50;;;1.77;;
54959;SDS011;40860;51.710;8.736;2022-09-09T06:31:04;4.95;;;1.20;;
54959;SDS011;40860;51.710;8.736;2022-09-09T06:35:08;3.50;;;0.90;;
54959;SDS011;40860;51.710;8.736;2022-09-09T06:39:13;7.45;;;1.45;;
54959;SDS011;40860;51.710;8.736;2022-09-09T06:43:17;3.47;;;1.35;;
54959;SDS011;40860;51.710;8.736;2022-09-09T06:47:23;4.13;;;1.20;;
54959;SDS011;40860;51.710;8.736;2022-09-09T06:51:28;7.13;;;1.52;;
54959;SDS011;40860;51.710;8.736;2022-09-09T06:55:33;2.95;;;1.27;;
54959;SDS011;40860;51.710;8.736;2022-09-09T06:59:38;4.88;;;1.63;;
54959;SDS011;40860;51.710;8.736;2022-09-09T07:03:41;6.63;;;1.60;;
54959;SDS011;40860;51.710;8.736;2022-09-09T07:07:47;6.28;;;1.20;;
54959;SDS011;40860;51.710;8.736;2022-09-09T07:11:54;4.88;;;1.75;;
54959;SDS011;40860;51.710;8.736;2022-09-09T07:16:03;5.03;;;1.73;;
54959;SDS011;40860;51.710;8.736;2022-09-09T07:20:08;5.30;;;1.60;;
54959;SDS011;40860;51.710;8.736;2022-09-09T07:24:11;5.63;;;2.00;;
54959;SDS011;40860;51.710;8.736;2022-09-09T07:28:17;4.45;;;1.40;;
54959;SDS011;40860;51.710;8.736;2022-09-09T07:32:20;4.65;;;1.52;;
54959;SDS011;40860;51.710;8.736;2022-09-09T07:36:24;4.47;;;1.85;;
54959;SDS011;40860;51.710;8.736;2022-09-09T07:40:34;5.05;;;1.50;;
54959;SDS011;40860;51.710;8.736;2022-09-09T07:44:39;4.97;;;1.67;;
54959;SDS011;40860;51.710;8.736;2022-09-09T07:48:45;5.88;;;1.70;;
54959;SDS011;40860;51.710;8.736;2022-09-09T07:52:54;7.00;;;1.45;;
54959;SDS011;40860;51.710;8.736;2022-09-09T07:56:58;5.50;;;1.38;;
54959;SDS011;40860;51.710;8.736;2022-09-09T08:01:07;4.07;;;1.35;;
54959;SDS011;40860;51.710;8.736;2022-09-09T08:05:12;6.00;;;1.98;;
54959;SDS011;40860;51.710;8.736;2022-09-09T08:09:16;3.72;;;0.73;;
54959;SDS011;40860;51.710;8.736;2022-09-09T08:13:21;3.00;;;1.00;;
54959;SDS011;40860;51.710;8.736;2022-09-09T08:17:28;1.52;;;0.60;;
54959;SDS011;40860;51.710;8.736;2022-09-09T08:21:35;3.45;;;0.88;;
54959;SDS011;40860;51.710;8.736;2022-09-09T08:25:40;2.33;;;0.90;;
54959;SDS011;40860;51.710;8.736;2022-09-09T08:29:43;3.58;;;0.80;;
54959;SDS011;40860;51.710;8.736;2022-09-09T08:33:47;1.77;;;0.50;;
54959;SDS011;40860;51.710;8.736;2022-09-09T08:37:54;2.95;;;0.90;;
54959;SDS011;40860;51.710;8.736;2022-09-09T08:42:13;2.40;;;0.70;;
54959;SDS011;40860;51.710;8.736;2022-09-09T08:46:30;2.78;;;0.80;;
54959;SDS011;40860;51.710;8.736;2022-09-09T08:50:39;4.35;;;0.80;;
54959;SDS011;40860;51.710;8.736;2022-09-09T08:54:49;2.92;;;0.77;;
54959;SDS011;40860;51.710;8.736;2022-09-09T08:58:55;4.35;;;1.00;;
54959;SDS011;40860;51.710;8.736;2022-09-09T09:03:13;3.63;;;0.68;;
54959;SDS011;40860;51.710;8.736;2022-09-09T09:07:28;4.22;;;0.98;;
54959;SDS011;40860;51.710;8.736;2022-09-09T09:11:42;3.20;;;1.05;;
54959;SDS011;40860;51.710;8.736;2022-09-09T09:15:49;3.63;;;1.50;;
54959;SDS011;40860;51.710;8.736;2022-09-09T09:19:56;2.95;;;1.05;;
54959;SDS011;40860;51.710;8.736;2022-09-09T09:24:02;4.43;;;1.10;;
54959;SDS011;40860;51.710;8.736;2022-09-09T09:28:24;2.58;;;1.17;;
54959;SDS011;40860;51.710;8.736;2022-09-09T09:32:35;4.45;;;1.45;;
54959;SDS011;40860;51.710;8.736;2022-09-09T09:36:42;3.78;;;1.20;;
54959;SDS011;40860;51.710;8.736;2022-09-09T09:40:52;4.55;;;1.02;;
54959;SDS011;40860;51.710;8.736;2022-09-09T09:45:06;3.17;;;1.10;;
54959;SDS011;40860;51.710;8.736;2022-09-09T09:49:11;4.45;;;1.73;;
54959;SDS011;40860;51.710;8.736;2022-09-09T09:53:18;5.00;;;1.27;;
54959;SDS011;40860;51.710;8.736;2022-09-09T09:57:27;4.40;;;1.00;;
54959;SDS011;40860;51.710;8.736;2022-09-09T10:01:35;5.65;;;1.17;;
54959;SDS011;40860;51.710;8.736;2022-09-09T10:05:45;3.20;;;0.90;;
54959;SDS011;40860;51.710;8.736;2022-09-09T10:09:50;3.22;;;1.00;;
54959;SDS011;40860;51.710;8.736;2022-09-09T10:13:58;5.80;;;1.00;;
54959;SDS011;40860;51.710;8.736;2022-09-09T10:18:17;3.15;;;1.00;;
54959;SDS011;40860;51.710;8.736;2022-09-09T10:22:33;2.10;;;0.90;;
54959;SDS011;40860;51.710;8.736;2022-09-09T10:26:39;4.85;;;1.10;;
54959;SDS011;40860;51.710;8.736;2022-09-09T10:30:50;4.20;;;0.95;;
54959;SDS011;40860;51.710;8.736;2022-09-09T10:35:09;3.85;;;1.10;;
54959;SDS011;40860;51.710;8.736;2022-09-09T10:39:16;4.40;;;1.35;;
54959;SDS011;40860;51.710;8.736;2022-09-09T10:43:39;7.22;;;1.73;;
54959;SDS011;40860;51.710;8.736;2022-09-09T10:48:05;5.20;;;1.20;;
54959;SDS011;40860;51.710;8.736;2022-09-09T10:52:17;2.50;;;0.85;;
54959;SDS011;40860;51.710;8.736;2022-09-09T10:56:27;2.00;;;0.90;;
54959;SDS011;40860;51.710;8.736;2022-09-09T11:00:35;4.28;;;1.60;;
54959;SDS011;40860;51.710;8.736;2022-09-09T11:04:44;2.55;;;0.90;;
54959;SDS011;40860;51.710;8.736;2022-09-09T11:08:50;5.05;;;0.95;;
54959;SDS011;40860;51.710;8.736;2022-09-09T11:12:59;3.22;;;0.95;;
54959;SDS011;40860;51.710;8.736;2022-09-09T11:17:06;5.22;;;1.00;;
54959;SDS011;40860;51.710;8.736;2022-09-09T11:21:16;2.45;;;1.00;;
54959;SDS011;40860;51.710;8.736;2022-09-09T11:25:25;6.22;;;1.48;;
54959;SDS011;40860;51.710;8.736;2022-09-09T11:29:36;2.47;;;0.90;;
54959;SDS011;40860;51.710;8.736;2022-09-09T11:33:57;3.97;;;1.02;;
54959;SDS011;40860;51.710;8.736;2022-09-09T11:38:21;4.25;;;0.77;;
54959;SDS011;40860;51.710;8.736;2022-09-09T11:42:28;4.35;;;1.50;;
54959;SDS011;40860;51.710;8.736;2022-09-09T11:46:32;4.60;;;0.90;;
54959;SDS011;40860;51.710;8.736;2022-09-09T11:50:39;5.88;;;1.30;;
54959;SDS011;40860;51.710;8.736;2022-09-09T11:54:46;5.18;;;1.40;;
54959;SDS011;40860;51.710;8.736;2022-09-09T11:58:55;6.22;;;1.50;;
54959;SDS011;40860;51.710;8.736;2022-09-09T12:03:02;5.05;;;1.00;;
54959;SDS011;40860;51.710;8.736;2022-09-09T12:07:21;4.70;;;1.00;;
54959;SDS011;40860;51.710;8.736;2022-09-09T12:11:32;4.93;;;1.05;;
54959;SDS011;40860;51.710;8.736;2022-09-09T12:15:35;3.03;;;1.00;;
54959;SDS011;40860;51.710;8.736;2022-09-09T12:19:59;4.03;;;1.08;;
54959;SDS011;40860;51.710;8.736;2022-09-09T12:24:07;4.03;;;1.35;;
54959;SDS011;40860;51.710;8.736;2022-09-09T12:28:15;4.25;;;1.17;;
54959;SDS011;40860;51.710;8.736;2022-09-09T12:32:20;3.30;;;1.00;;
54959;SDS011;40860;51.710;8.736;2022-09-09T12:36:27;2.67;;;0.73;;
54959;SDS011;40860;51.710;8.736;2022-09-09T12:40:33;3.10;;;1.05;;
54959;SDS011;40860;51.710;8.736;2022-09-09T12:44:38;3.33;;;1.05;;
54959;SDS011;40860;51.710;8.736;2022-09-09T12:48:44;3.03;;;1.10;;
54959;SDS011;40860;51.710;8.736;2022-09-09T12:52:47;3.13;;;0.73;;
54959;SDS011;40860;51.710;8.736;2022-09-09T12:56:54;2.05;;;0.85;;
54959;SDS011;40860;51.710;8.736;2022-09-09T13:00:59;4.20;;;1.10;;
54959;SDS011;40860;51.710;8.736;2022-09-09T13:05:08;3.65;;;1.35;;
54959;SDS011;40860;51.710;8.736;2022-09-09T13:09:18;4.10;;;1.23;;
54959;SDS011;40860;51.710;8.736;2022-09-09T13:13:21;2.03;;;0.82;;
54959;SDS011;40860;51.710;8.736;2022-09-09T13:17:29;2.33;;;0.80;;
54959;SDS011;40860;51.710;8.736;2022-09-09T13:21:32;1.58;;;0.70;;
54959;SDS011;40860;51.710;8.736;2022-09-09T13:25:36;2.42;;;0.80;;
54959;SDS011;40860;51.710;8.736;2022-09-09T13:29:50;3.17;;;0.68;;
54959;SDS011;40860;51.710;8.736;2022-09-09T13:33:57;2.05;;;0.70;;
54959;SDS011;40860;51.710;8.736;2022-09-09T13:38:06;2.25;;;0.88;;
54959;SDS011;40860;51.710;8.736;2022-09-09T13:42:19;2.08;;;0.80;;
54959;SDS011;40860;51.710;8.736;2022-09-09T13:46:30;3.67;;;0.90;;
54959;SDS011;40860;51.710;8.736;2022-09-09T13:50:37;2.40;;;0.60;;
54959;SDS011;40860;51.710;8.736;2022-09-09T13:54:39;3.22;;;0.70;;
54959;SDS011;40860;51.710;8.736;2022-09-09T13:58:43;3.88;;;0.82;;
54959;SDS011;40860;51.710;8.736;2022-09-09T14:02:46;2.05;;;0.63;;
54959;SDS011;40860;51.710;8.736;2022-09-09T14:06:50;1.45;;;0.80;;
54959;SDS011;40860;51.710;8.736;2022-09-09T14:10:53;1.40;;;0.70;;
54959;SDS011;40860;51.710;8.736;2022-09-09T14:14:57;1.67;;;0.65;;
54959;SDS011;40860;51.710;8.736;2022-09-09T14:19:00;2.50;;;0.73;;
54959;SDS011;40860;51.710;8.736;2022-09-09T14:23:05;1.77;;;0.70;;
54959;SDS011;40860;51.710;8.736;2022-09-09T14:27:07;1.85;;;0.70;;
54959;SDS011;40860;51.710;8.736;2022-09-09T14:31:10;1.55;;;0.60;;
54959;SDS011;40860;51.710;8.736;2022-09-09T14:35:14;1.52;;;0.60;;
54959;SDS011;40860;51.710;8.736;2022-09-09T14:39:19;2.33;;;0.70;;
54959;SDS011;40860;51.710;8.736;2022-09-09T14:43:22;1.75;;;0.77;;
54959;SDS011;40860;51.710;8.736;2022-09-09T14:47:25;2.90;;;0.80;;
54959;SDS011;40860;51.710;8.736;2022-09-09T14:51:28;1.98;;;0.90;;
54959;SDS011;40860;51.710;8.736;2022-09-09T14:55:33;3.90;;;0.70;;
54959;SDS011;40860;51.710;8.736;2022-09-09T14:59:36;3.55;;;0.80;;
54959;SDS011;40860;51.710;8.736;2022-09-09T15:03:39;2.00;;;0.82;;
54959;SDS011;40860;51.710;8.736;2022-09-09T15:07:43;2.58;;;0.60;;
54959;SDS011;40860;51.710;8.736;2022-09-09T15:11:47;3.15;;;0.90;;
54959;SDS011;40860;51.710;8.736;2022-09-09T15:15:50;3.17;;;0.88;;
54959;SDS011;40860;51.710;8.736;2022-09-09T15:19:53;3.78;;;0.63;;
54959;SDS011;40860;51.710;8.736;2022-09-09T15:23:56;2.00;;;0.80;;
54959;SDS011;40860;51.710;8.736;2022-09-09T15:28:01;2.28;;;0.50;;
54959;SDS011;40860;51.710;8.736;2022-09-09T15:32:04;1.45;;;0.60;;
54959;SDS011;40860;51.710;8.736;2022-09-09T15:36:14;1.70;;;0.70;;
54959;SDS011;40860;51.710;8.736;2022-09-09T15:40:17;1.42;;;0.50;;
54959;SDS011;40860;51.710;8.736;2022-09-09T15:44:21;3.08;;;0.70;;
54959;SDS011;40860;51.710;8.736;2022-09-09T15:48:29;2.88;;;0.90;;
54959;SDS011;40860;51.710;8.736;2022-09-09T15:52:34;2.25;;;0.77;;
54959;SDS011;40860;51.710;8.736;2022-09-09T15:56:37;4.20;;;1.08;;
54959;SDS011;40860;51.710;8.736;2022-09-09T16:00:41;2.25;;;0.90;;
54959;SDS011;40860;51.710;8.736;2022-09-09T16:04:44;3.28;;;1.38;;
54959;SDS011;40860;51.710;8.736;2022-09-09T16:08:47;2.85;;;0.77;;
54959;SDS011;40860;51.710;8.736;2022-09-09T16:12:51;2.97;;;1.13;;
54959;SDS011;40860;51.710;8.736;2022-09-09T16:16:58;4.63;;;1.00;;
54959;SDS011;40860;51.710;8.736;2022-09-09T16:21:01;5.97;;;1.70;;
54959;SDS011;40860;51.710;8.736;2022-09-09T16:25:04;5.22;;;1.17;;
54959;SDS011;40860;51.710;8.736;2022-09-09T16:29:07;2.10;;;0.80;;
54959;SDS011;40860;51.710;8.736;2022-09-09T16:33:12;3.67;;;1.05;;
54959;SDS011;40860;51.710;8.736;2022-09-09T16:37:15;2.65;;;0.90;;
54959;SDS011;40860;51.710;8.736;2022-09-09T16:41:18;2.92;;;1.20;;
54959;SDS011;40860;51.710;8.736;2022-09-09T16:45:22;1.70;;;0.80;;
54959;SDS011;40860;51.710;8.736;2022-09-09T16:49:26;2.42;;;0.75;;
54959;SDS011;40860;51.710;8.736;2022-09-09T16:53:29;1.48;;;0.80;;
54959;SDS011;40860;51.710;8.736;2022-09-09T16:57:32;2.58;;;0.95;;
54959;SDS011;40860;51.710;8.736;2022-09-09T17:01:35;3.17;;;1.30;;
54959;SDS011;40860;51.710;8.736;2022-09-09T17:05:43;2.60;;;0.80;;
54959;SDS011;40860;51.710;8.736;2022-09-09T17:09:46;3.78;;;1.08;;
54959;SDS011;40860;51.710;8.736;2022-09-09T17:13:49;1.38;;;0.70;;
54959;SDS011;40860;51.710;8.736;2022-09-09T17:17:52;7.93;;;1.27;;
54959;SDS011;40860;51.710;8.736;2022-09-09T17:21:57;2.80;;;1.10;;
54959;SDS011;40860;51.710;8.736;2022-09-09T17:26:19;2.08;;;1.00;;
54959;SDS011;40860;51.710;8.736;2022-09-09T17:30:23;2.17;;;0.88;;
54959;SDS011;40860;51.710;8.736;2022-09-09T17:34:26;2.50;;;1.10;;
54959;SDS011;40860;51.710;8.736;2022-09-09T17:38:30;2.72;;;0.85;;
54959;SDS011;40860;51.710;8.736;2022-09-09T17:42:33;2.30;;;0.90;;
54959;SDS011;40860;51.710;8.736;2022-09-09T17:46:42;2.65;;;0.90;;
54959;SDS011;40860;51.710;8.736;2022-09-09T17:50:56;1.73;;;0.93;;
54959;SDS011;40860;51.710;8.736;2022-09-09T17:55:01;3.33;;;1.13;;
54959;SDS011;40860;51.710;8.736;2022-09-09T17:59:05;2.50;;;1.17;;
54959;SDS011;40860;51.710;8.736;2022-09-09T18:03:10;3.78;;;1.73;;
54959;SDS011;40860;51.710;8.736;2022-09-09T18:07:13;5.07;;;2.33;;
54959;SDS011;40860;51.710;8.736;2022-09-09T18:11:18;3.53;;;1.08;;
54959;SDS011;40860;51.710;8.736;2022-09-09T18:15:25;2.53;;;0.85;;
54959;SDS011;40860;51.710;8.736;2022-09-09T18:19:48;2.65;;;0.93;;
54959;SDS011;40860;51.710;8.736;2022-09-09T18:23:51;2.00;;;0.80;;
54959;SDS011;40860;51.710;8.736;2022-09-09T18:27:55;2.08;;;0.88;;
54959;SDS011;40860;51.710;8.736;2022-09-09T18:31:58;2.08;;;1.30;;
54959;SDS011;40860;51.710;8.736;2022-09-09T18:36:03;1.05;;;0.73;;
54959;SDS011;40860;51.710;8.736;2022-09-09T18:40:07;1.75;;;0.77;;
54959;SDS011;40860;51.710;8.736;2022-09-09T18:44:14;1.67;;;0.90;;
54959;SDS011;40860;51.710;8.736;2022-09-09T18:48:19;3.80;;;0.60;;
54959;SDS011;40860;51.710;8.736;2022-09-09T18:52:22;2.13;;;1.13;;
54959;SDS011;40860;51.710;8.736;2022-09-09T18:56:26;1.63;;;1.00;;
54959;SDS011;40860;51.710;8.736;2022-09-09T19:00:33;1.77;;;1.33;;
54959;SDS011;40860;51.710;8.736;2022-09-09T19:04:35;2.03;;;1.00;;
54959;SDS011;40860;51.710;8.736;2022-09-09T19:08:39;2.70;;;1.10;;
54959;SDS011;40860;51.710;8.736;2022-09-09T19:12:43;3.70;;;1.48;;
54959;SDS011;40860;51.710;8.736;2022-09-09T19:16:47;2.03;;;1.00;;
54959;SDS011;40860;51.710;8.736;2022-09-09T19:20:50;1.50;;;1.20;;
54959;SDS011;40860;51.710;8.736;2022-09-09T19:24:52;2.42;;;1.17;;
54959;SDS011;40860;51.710;8.736;2022-09-09T19:28:56;1.60;;;1.05;;
54959;SDS011;40860;51.710;8.736;2022-09-09T19:33:00;3.53;;;0.90;;
54959;SDS011;40860;51.710;8.736;2022-09-09T19:37:04;2.55;;;0.90;;
54959;SDS011;40860;51.710;8.736;2022-09-09T19:41:08;3.08;;;1.70;;
54959;SDS011;40860;51.710;8.736;2022-09-09T19:45:13;1.25;;;0.70;;
54959;SDS011;40860;51.710;8.736;2022-09-09T19:49:17;2.90;;;2.20;;
54959;SDS011;40860;51.710;8.736;2022-09-09T19:53:20;1.80;;;0.65;;
54959;SDS011;40860;51.710;8.736;2022-09-09T19:57:23;2.20;;;1.40;;
54959;SDS011;40860;51.710;8.736;2022-09-09T20:01:29;1.42;;;0.50;;
54959;SDS011;40860;51.710;8.736;2022-09-09T20:05:40;1.55;;;0.57;;
54959;SDS011;40860;51.710;8.736;2022-09-09T20:09:43;0.65;;;0.50;;
54959;SDS011;40860;51.710;8.736;2022-09-09T20:13:46;0.60;;;0.50;;
54959;SDS011;40860;51.710;8.736;2022-09-09T20:17:50;3.42;;;1.20;;
54959;SDS011;40860;51.710;8.736;2022-09-09T20:21:54;0.80;;;0.77;;
54959;SDS011;40860;51.710;8.736;2022-09-09T20:25:59;2.50;;;0.70;;
54959;SDS011;40860;51.710;8.736;2022-09-09T20:30:03;2.85;;;0.88;;
54959;SDS011;40860;51.710;8.736;2022-09-09T20:34:08;1.83;;;0.70;;
54959;SDS011;40860;51.710;8.736;2022-09-09T20:38:14;1.58;;;0.60;;
54959;SDS011;40860;51.710;8.736;2022-09-09T20:42:17;1.30;;;0.45;;
54959;SDS011;40860;51.710;8.736;2022-09-09T20:46:21;1.95;;;0.80;;
54959;SDS011;40860;51.710;8.736;2022-09-09T20:50:25;3.17;;;2.20;;
54959;SDS011;40860;51.710;8.736;2022-09-09T20:54:29;1.77;;;0.95;;
54959;SDS011;40860;51.710;8.736;2022-09-09T20:58:32;1.05;;;0.75;;
54959;SDS011;40860;51.710;8.736;2022-09-09T21:02:36;1.85;;;0.60;;
54959;SDS011;40860;51.710;8.736;2022-09-09T21:06:39;2.50;;;0.77;;
54959;SDS011;40860;51.710;8.736;2022-09-09T21:10:43;2.60;;;0.80;;
54959;SDS011;40860;51.710;8.736;2022-09-09T21:14:47;2.40;;;0.70;;
54959;SDS011;40860;51.710;8.736;2022-09-09T21:18:49;2.55;;;1.75;;
54959;SDS011;40860;51.710;8.736;2022-09-09T21:22:52;2.58;;;0.60;;
54959;SDS011;40860;51.710;8.736;2022-09-09T21:26:56;0.80;;;0.68;;
54959;SDS011;40860;51.710;8.736;2022-09-09T21:31:01;1.85;;;0.90;;
54959;SDS011;40860;51.710;8.736;2022-09-09T21:35:04;1.73;;;0.80;;
54959;SDS011;40860;51.710;8.736;2022-09-09T21:39:08;1.10;;;0.80;;
54959;SDS011;40860;51.710;8.736;2022-09-09T21:43:12;1.00;;;0.75;;
54959;SDS011;40860;51.710;8.736;2022-09-09T21:47:15;1.20;;;0.73;;
54959;SDS011;40860;51.710;8.736;2022-09-09T21:51:18;1.95;;;1.10;;
54959;SDS011;40860;51.710;8.736;2022-09-09T21:55:21;2.35;;;0.80;;
54959;SDS011;40860;51.710;8.736;2022-09-09T21:59:26;1.17;;;0.90;;
54959;SDS011;40860;51.710;8.736;2022-09-09T22:03:28;2.53;;;1.00;;
54959;SDS011;40860;51.710;8.736;2022-09-09T22:07:31;2.95;;;1.17;;
54959;SDS011;40860;51.710;8.736;2022-09-09T22:11:34;1.60;;;0.80;;
54959;SDS011;40860;51.710;8.736;2022-09-09T22:15:41;2.35;;;1.13;;
54959;SDS011;40860;51.710;8.736;2022-09-09T22:19:44;1.95;;;0.93;;
54959;SDS011;40860;51.710;8.736;2022-09-09T22:23:49;1.98;;;1.20;;
54959;SDS011;40860;51.710;8.736;2022-09-09T22:27:53;2.50;;;1.10;;
54959;SDS011;40860;51.710;8.736;2022-09-09T22:31:58;4.10;;;1.10;;
54959;SDS011;40860;51.710;8.736;2022-09-09T22:36:01;2.03;;;0.85;;
54959;SDS011;40860;51.710;8.736;2022-09-09T22:40:05;1.65;;;1.00;;
54959;SDS011;40860;51.710;8.736;2022-09-09T22:44:09;2.45;;;1.02;;
54959;SDS011;40860;51.710;8.736;2022-09-09T22:48:13;2.70;;;0.98;;
54959;SDS011;40860;51.710;8.736;2022-09-09T22:52:16;1.10;;;0.80;;
54959;SDS011;40860;51.710;8.736;2022-09-09T22:56:19;2.90;;;1.00;;
54959;SDS011;40860;51.710;8.736;2022-09-09T23:00:22;1.52;;;1.08;;
54959;SDS011;40860;51.710;8.736;2022-09-09T23:04:26;1.85;;;0.80;;
54959;SDS011;40860;51.710;8.736;2022-09-09T23:08:30;2.55;;;1.00;;
54959;SDS011;40860;51.710;8.736;2022-09-09T23:12:34;1.92;;;0.95;;
54959;SDS011;40860;51.710;8.736;2022-09-09T23:16:38;4.13;;;1.10;;
54959;SDS011;40860;51.710;8.736;2022-09-09T23:20:45;2.88;;;1.13;;
54959;SDS011;40860;51.710;8.736;2022-09-09T23:24:58;2.38;;;1.10;;
54959;SDS011;40860;51.710;8.736;2022-09-09T23:29:01;1.75;;;1.08;;
54959;SDS011;40860;51.710;8.736;2022-09-09T23:33:04;1.85;;;0.75;;
54959;SDS011;40860;51.710;8.736;2022-09-09T23:37:08;3.00;;;1.13;;
54959;SDS011;40860;51.710;8.736;2022-09-09T23:41:11;2.65;;;1.10;;
54959;SDS011;40860;51.710;8.736;2022-09-09T23:45:16;3.70;;;1.20;;
54959;SDS011;40860;51.710;8.736;2022-09-09T23:49:19;2.78;;;1.27;;
54959;SDS011;40860;51.710;8.736;2022-09-09T23:53:23;1.63;;;1.25;;
54959;SDS011;40860;51.710;8.736;2022-09-09T23:57:26;2.88;;;1.38;;
